This is the latest recevied weather packets stored in our database for station/object KC1IUC-15. If no packets are shown the sender has not sent any weather packets the latest 10 day(s).
| Time | Temp. | Humidity | Pressure | Rain* | Wind** | Luminosity | Snow |
|---|---|---|---|---|---|---|---|
| 1777662004 | 17.78° C | 29% | 1009.6 hPa | 0 mm | - | 655 W/m² | - |
| 1777661704 | 17.22° C | 32% | 1010.3 hPa | 0 mm | - | 649 W/m² | - |
| 1777661404 | 17.22° C | 31% | 1010.3 hPa | 0 mm | - | 645 W/m² | - |
| 1777661104 | 16.67° C | 31% | 1009.9 hPa | 0 mm | - | 674 W/m² | - |
| 1777660803 | 16.11° C | 30% | 1010.3 hPa | 0 mm | - | 723 W/m² | - |
| 1777660503 | 17.22° C | 32% | 1010.3 hPa | 0 mm | - | 294 W/m² | - |
| 1777660204 | 16.67° C | 33% | 1010.3 hPa | 0 mm | - | 753 W/m² | - |
| 1777659903 | 16.67° C | 30% | 1010.6 hPa | 0 mm | - | 743 W/m² | - |
| 1777659604 | 16.67° C | 31% | 1010.3 hPa | 0 mm | - | 605 W/m² | - |
| 1777659303 | 15.56° C | 32% | 1010.3 hPa | 0 mm | - | 772 W/m² | - |
| 1777659004 | 15° C | 34% | 1010.6 hPa | 0 mm | - | 834 W/m² | - |
| 1777658703 | 15° C | 35% | 1010.3 hPa | 0 mm | - | 222 W/m² | - |
| 1777658404 | 16.11° C | 31% | 1010.6 hPa | 0 mm | - | 151 W/m² | - |
| 1777658103 | 16.67° C | 32% | 1010.6 hPa | 0 mm | - | 183 W/m² | - |
| 1777657803 | 16.11° C | 32% | 1010.6 hPa | 0 mm | - | 192 W/m² | - |
| 1777657504 | 15.56° C | 33% | 1010.3 hPa | 0 mm | - | 129 W/m² | - |
| 1777657203 | 16.67° C | 31% | 1010.6 hPa | 0 mm | - | 218 W/m² | - |
| 1777656903 | 16.67° C | 32% | 1010.6 hPa | 0 mm | - | 834 W/m² | - |
| 1777656603 | 15.56° C | 33% | 1010.6 hPa | 0 mm | - | 837 W/m² | - |
| 1777656304 | 15.56° C | 33% | 1010.6 hPa | 0 mm | - | 846 W/m² | - |
| 1777656003 | 15.56° C | 32% | 1010.6 hPa | 0 mm | - | 539 W/m² | - |
| 1777655703 | 15.56° C | 35% | 1010.6 hPa | 0 mm | - | 188 W/m² | - |
| 1777655403 | 16.67° C | 30% | 1010.6 hPa | 0 mm | - | 220 W/m² | - |
| 1777655103 | 16.67° C | 31% | 1010.6 hPa | 0 mm | - | 221 W/m² | - |
| 1777654804 | 16.67° C | 31% | 1011 hPa | 0 mm | - | 221 W/m² | - |
* Rain latest hour (hover to see other rain measurements)
** Current wind speed in m/s (hover to see current wind gust speed)